Time;durP1;ratioP1;P1;durP2;ratioP2;P2;SDS_P1;SDS_P2;PMS_P1;PMS_P2;Temp;Humidity;BMP_temperature;BMP_pressure;BME280_temperature;BME280_humidity;BME280_pressure;Samples;Min_cycle;Max_cycle;Signal;HPM_P1;HPM_P2
2023/05/22 00:00:07;;;;;;;11.60;9.40;;;17.60;78.00;;;;;;5063838;28;19966;-69
2023/05/22 00:02:41;;;;;;;12.43;10.00;;;17.60;78.10;;;;;;5062235;28;20309;-73
2023/05/22 00:05:10;;;;;;;13.32;9.50;;;17.60;78.20;;;;;;5065260;28;20067;-72
2023/05/22 00:07:38;;;;;;;11.40;9.55;;;17.60;78.40;;;;;;5053473;28;20123;-73
2023/05/22 00:10:05;;;;;;;11.82;9.50;;;17.50;78.40;;;;;;5057287;28;20094;-73
2023/05/22 00:12:32;;;;;;;12.35;10.02;;;17.50;78.50;;;;;;5049738;28;20060;-62
2023/05/22 00:18:05;;;;;;;12.20;9.85;;;17.40;78.60;;;;;;5059186;28;20048;-62
2023/05/22 00:20:31;;;;;;;11.40;9.57;;;17.40;78.70;;;;;;5066045;28;20044;-68
2023/05/22 00:22:59;;;;;;;12.65;10.48;;;17.40;78.70;;;;;;5053499;28;20048;-68
2023/05/22 00:25:27;;;;;;;13.48;11.02;;;17.40;78.90;;;;;;5064583;28;20112;-63
2023/05/22 00:27:54;;;;;;;12.93;10.13;;;17.30;79.00;;;;;;5058906;28;20395;-62
2023/05/22 00:30:22;;;;;;;12.38;11.07;;;17.30;79.20;;;;;;5052310;28;20064;-63
2023/05/22 00:32:49;;;;;;;12.85;10.52;;;17.20;79.40;;;;;;5059039;28;20112;-63
2023/05/22 00:35:16;;;;;;;12.68;9.90;;;17.20;79.50;;;;;;5062271;28;20519;-62
2023/05/22 00:37:44;;;;;;;12.38;10.20;;;17.20;79.60;;;;;;5063890;28;20498;-63
2023/05/22 00:40:14;;;;;;;13.57;10.93;;;17.20;79.60;;;;;;5062040;28;20040;-63
2023/05/22 00:42:41;;;;;;;14.27;10.80;;;17.10;79.60;;;;;;5040396;28;20128;-63
2023/05/22 00:45:11;;;;;;;12.63;10.70;;;17.10;79.60;;;;;;5063724;28;20052;-62
2023/05/22 00:47:39;;;;;;;15.50;10.38;;;17.10;79.70;;;;;;5060709;28;20041;-63
2023/05/22 00:50:07;;;;;;;14.40;11.10;;;17.10;79.70;;;;;;5058828;28;20065;-62
2023/05/22 00:52:37;;;;;;;14.55;10.63;;;17.10;79.60;;;;;;5062188;28;20098;-74
2023/05/22 00:55:05;;;;;;;13.98;9.85;;;17.00;79.70;;;;;;5063331;28;20040;-73
2023/05/22 00:57:33;;;;;;;13.45;10.95;;;17.00;79.80;;;;;;5064981;28;20055;-62
2023/05/22 01:00:02;;;;;;;14.57;11.82;;;17.00;79.90;;;;;;5058139;28;20095;-63
2023/05/22 01:02:31;;;;;;;14.87;10.97;;;17.00;79.90;;;;;;5058123;28;20068;-69
2023/05/22 01:05:00;;;;;;;14.43;11.77;;;16.90;79.80;;;;;;5041833;28;20482;-71
2023/05/22 01:07:27;;;;;;;13.10;9.73;;;16.90;79.70;;;;;;5067711;28;20523;-79
2023/05/22 01:09:55;;;;;;;13.32;10.63;;;16.90;79.80;;;;;;5061609;28;20049;-78
2023/05/22 01:12:34;;;;;;;13.77;10.57;;;16.90;79.80;;;;;;5063719;28;20052;-62
2023/05/22 01:15:10;;;;;;;13.60;10.15;;;16.90;79.90;;;;;;5065776;28;20044;-63
2023/05/22 01:17:45;;;;;;;12.90;10.23;;;16.90;79.90;;;;;;5064876;28;20055;-62
2023/05/22 01:20:21;;;;;;;12.20;9.93;;;16.90;80.00;;;;;;5065064;28;20048;-63
2023/05/22 01:23:10;;;;;;;15.30;10.13;;;16.80;80.00;;;;;;5065396;28;20044;-63
2023/05/22 01:26:12;;;;;;;12.77;10.70;;;16.80;79.90;;;;;;5048811;28;20053;-64
2023/05/22 01:28:59;;;;;;;15.30;10.88;;;16.80;80.00;;;;;;5065388;28;20041;-63
2023/05/22 01:31:31;;;;;;;14.48;10.80;;;16.90;79.90;;;;;;5049139;28;20865;-67
2023/05/22 01:34:01;;;;;;;12.55;10.02;;;16.80;79.80;;;;;;5066794;28;20056;-68
2023/05/22 01:36:31;;;;;;;13.32;10.77;;;16.70;79.90;;;;;;5066947;28;20044;-62
2023/05/22 01:39:03;;;;;;;14.10;10.45;;;16.70;79.60;;;;;;5063351;28;20048;-62
2023/05/22 01:41:30;;;;;;;14.38;10.68;;;16.80;79.40;;;;;;5058463;28;20071;-63
2023/05/22 01:43:57;;;;;;;13.20;10.32;;;16.80;79.50;;;;;;5045189;28;20052;-63
2023/05/22 01:46:27;;;;;;;13.02;10.25;;;16.80;79.50;;;;;;5061471;28;20052;-70
2023/05/22 01:48:53;;;;;;;12.88;10.30;;;16.80;79.60;;;;;;5040108;28;20041;-69
2023/05/22 01:51:32;;;;;;;12.88;10.85;;;16.70;79.90;;;;;;5042484;28;20044;-78
2023/05/22 01:54:08;;;;;;;12.05;9.80;;;16.70;79.80;;;;;;5034389;28;20044;-79
2023/05/22 01:56:47;;;;;;;12.73;10.07;;;16.70;79.80;;;;;;5055453;28;20049;-66
2023/05/22 01:59:24;;;;;;;12.60;9.70;;;16.70;79.80;;;;;;5034416;28;20132;-66
2023/05/22 02:01:57;;;;;;;11.77;9.38;;;16.60;80.00;;;;;;5055112;28;20045;-63
2023/05/22 02:04:26;;;;;;;13.52;10.00;;;16.60;80.10;;;;;;5053617;28;20046;-62
2023/05/22 02:06:54;;;;;;;12.75;9.90;;;16.60;80.00;;;;;;5068535;28;20044;-78
2023/05/22 02:09:25;;;;;;;13.27;9.82;;;16.60;80.00;;;;;;5054160;28;20052;-77
2023/05/22 02:11:52;;;;;;;14.27;9.50;;;16.50;80.10;;;;;;5050369;28;20083;-66
2023/05/22 02:14:21;;;;;;;12.48;9.68;;;16.50;80.20;;;;;;5058001;28;20139;-66
2023/05/22 02:16:49;;;;;;;14.35;9.85;;;16.50;80.40;;;;;;5048608;28;20573;-68
2023/05/22 02:19:17;;;;;;;12.57;9.88;;;16.40;80.40;;;;;;5057158;28;20052;-68
2023/05/22 02:21:46;;;;;;;;;;;16.40;80.50;;;;;;5045626;28;20060;-68
2023/05/22 02:24:15;;;;;;;14.10;10.15;;;16.40;80.30;;;;;;5066660;28;19935;-69
2023/05/22 02:26:43;;;;;;;13.30;10.20;;;16.40;80.30;;;;;;5053086;28;20090;-62
2023/05/22 02:29:11;;;;;;;13.95;9.90;;;16.50;79.80;;;;;;5044358;28;20522;-62
2023/05/22 02:31:39;;;;;;;14.25;10.15;;;16.60;79.40;;;;;;5051193;28;20087;-69
2023/05/22 02:34:06;;;;;;;13.10;10.10;;;16.60;79.30;;;;;;5066305;28;20593;-69
2023/05/22 02:36:36;;;;;;;13.27;10.07;;;16.60;79.40;;;;;;5067436;28;20480;-68
2023/05/22 02:39:03;;;;;;;13.32;9.82;;;16.60;79.40;;;;;;5035274;28;20041;-68
2023/05/22 02:41:31;;;;;;;13.75;10.02;;;16.60;79.60;;;;;;5046386;28;20095;-68
2023/05/22 02:43:57;;;;;;;11.90;9.85;;;16.60;79.80;;;;;;5065705;28;20040;-69
2023/05/22 02:46:24;;;;;;;12.65;9.68;;;16.60;79.70;;;;;;5038112;28;20103;-69
2023/05/22 02:48:51;;;;;;;13.25;9.73;;;16.60;79.40;;;;;;5048400;28;20199;-69
2023/05/22 02:51:19;;;;;;;11.45;9.77;;;16.60;79.00;;;;;;5047227;28;20093;-68
2023/05/22 02:53:47;;;;;;;12.18;10.02;;;16.60;79.00;;;;;;5042914;28;20045;-69
2023/05/22 02:56:14;;;;;;;14.10;10.05;;;16.70;78.90;;;;;;5057505;28;20123;-68
2023/05/22 02:58:41;;;;;;;11.95;9.27;;;16.60;79.30;;;;;;5065941;28;20101;-67
2023/05/22 03:01:09;;;;;;;12.95;9.68;;;16.60;79.40;;;;;;5045143;28;20079;-64
2023/05/22 03:03:36;;;;;;;13.75;10.00;;;16.50;79.50;;;;;;5064921;28;20072;-62
2023/05/22 03:06:04;;;;;;;12.80;9.30;;;16.60;79.50;;;;;;5051763;28;21282;-67
2023/05/22 03:08:33;;;;;;;12.60;9.70;;;16.40;79.80;;;;;;5059508;28;20045;-68
2023/05/22 03:11:01;;;;;;;12.75;10.02;;;16.50;79.60;;;;;;5064932;28;20590;-62
2023/05/22 03:13:29;;;;;;;12.68;9.32;;;16.40;79.70;;;;;;5036952;28;20045;-64
2023/05/22 03:15:56;;;;;;;12.25;9.18;;;16.50;79.90;;;;;;5033355;28;20053;-67
2023/05/22 03:18:23;;;;;;;12.75;10.38;;;16.40;80.00;;;;;;5035600;28;20102;-68
2023/05/22 03:20:50;;;;;;;12.85;10.50;;;16.30;80.20;;;;;;5039196;28;20044;-67
2023/05/22 03:23:19;;;;;;;12.52;9.77;;;16.30;80.40;;;;;;5066331;28;20048;-66
2023/05/22 03:25:46;;;;;;;12.77;9.80;;;16.30;80.40;;;;;;5047133;28;20123;-69
2023/05/22 03:28:15;;;;;;;14.10;9.98;;;16.20;80.50;;;;;;5042188;28;20051;-69
2023/05/22 03:30:42;;;;;;;12.98;10.15;;;16.20;80.60;;;;;;5055669;28;20241;-67
2023/05/22 03:33:17;;;;;;;11.85;9.70;;;16.20;80.60;;;;;;5043429;28;20070;-68
2023/05/22 03:35:44;;;;;;;13.23;10.20;;;16.10;80.80;;;;;;5052867;28;20056;-61
2023/05/22 03:38:11;;;;;;;12.98;10.27;;;16.10;80.80;;;;;;5036768;28;20047;-61
2023/05/22 03:40:38;;;;;;;12.25;9.75;;;16.10;80.90;;;;;;5051974;28;20054;-67
2023/05/22 03:43:06;;;;;;;12.60;9.55;;;16.10;81.00;;;;;;5034368;28;20060;-67
2023/05/22 03:45:34;;;;;;;16.33;10.57;;;16.00;81.00;;;;;;5038743;28;20041;-63
2023/05/22 03:48:02;;;;;;;14.68;10.60;;;16.00;81.10;;;;;;5047730;28;20048;-63
2023/05/22 03:50:29;;;;;;;13.57;9.82;;;16.00;81.20;;;;;;5037606;28;20059;-69
2023/05/22 03:52:56;;;;;;;13.60;9.60;;;15.90;81.30;;;;;;5061640;28;20523;-68
2023/05/22 03:55:23;;;;;;;13.48;9.75;;;15.90;81.30;;;;;;5065373;28;20091;-67
2023/05/22 03:57:50;;;;;;;12.35;9.77;;;15.90;81.20;;;;;;5053568;28;20071;-66
2023/05/22 04:00:18;;;;;;;12.05;9.38;;;15.90;81.30;;;;;;5046927;28;20136;-67
2023/05/22 04:02:46;;;;;;;12.98;9.65;;;15.90;81.40;;;;;;5067954;28;20059;-68
2023/05/22 04:05:13;;;;;;;14.80;10.20;;;15.90;81.50;;;;;;5068652;28;20474;-67
2023/05/22 04:07:40;;;;;;;13.48;9.90;;;15.90;81.40;;;;;;5048391;28;20050;-67
2023/05/22 04:10:08;;;;;;;11.88;9.70;;;15.90;81.40;;;;;;5067113;28;20045;-68
2023/05/22 04:12:35;;;;;;;11.68;9.70;;;16.00;81.30;;;;;;5062735;28;20048;-68
2023/05/22 04:15:02;;;;;;;12.52;9.82;;;16.00;81.40;;;;;;5047015;28;20053;-68
2023/05/22 04:17:36;;;;;;;14.40;10.25;;;16.00;81.40;;;;;;5035583;28;20060;-68
2023/05/22 04:20:07;;;;;;;11.15;9.73;;;15.90;81.50;;;;;;5067412;28;20060;-68
2023/05/22 04:22:34;;;;;;;12.40;10.00;;;16.00;81.50;;;;;;5045522;28;20063;-66
2023/05/22 04:25:03;;;;;;;14.45;9.75;;;16.00;81.40;;;;;;5062055;28;20425;-66
2023/05/22 04:27:33;;;;;;;12.48;9.73;;;16.00;81.50;;;;;;5064719;28;20040;-62
2023/05/22 04:30:01;;;;;;;12.10;10.00;;;16.10;81.50;;;;;;5063387;28;20403;-63
2023/05/22 04:32:28;;;;;;;13.23;9.77;;;16.10;81.50;;;;;;5046875;28;20132;-62
2023/05/22 04:34:57;;;;;;;11.90;10.10;;;16.10;81.60;;;;;;5065599;28;20048;-61
2023/05/22 04:37:27;;;;;;;13.70;10.82;;;16.00;81.60;;;;;;5059699;28;20049;-68
2023/05/22 04:39:57;;;;;;;13.63;10.60;;;16.10;81.60;;;;;;5055110;28;20090;-69
2023/05/22 04:42:27;;;;;;;13.88;11.18;;;16.10;81.50;;;;;;5062916;28;20037;-68
2023/05/22 04:44:56;;;;;;;14.25;11.38;;;16.10;81.70;;;;;;5064304;28;20048;-68
2023/05/22 04:47:23;;;;;;;14.25;10.20;;;16.10;81.80;;;;;;5036237;28;20052;-66
2023/05/22 04:49:51;;;;;;;13.05;9.90;;;16.10;81.70;;;;;;5066128;28;20078;-66
2023/05/22 04:52:18;;;;;;;13.00;10.20;;;16.20;81.70;;;;;;5062995;28;20106;-68
2023/05/22 04:54:46;;;;;;;12.85;10.32;;;16.20;81.80;;;;;;5063324;28;20086;-66
2023/05/22 04:57:13;;;;;;;13.00;10.45;;;16.20;81.70;;;;;;5063403;28;20061;-67
2023/05/22 04:59:44;;;;;;;13.88;10.07;;;16.20;81.60;;;;;;5041804;28;20494;-66
2023/05/22 05:02:11;;;;;;;12.77;9.95;;;16.30;81.70;;;;;;5045110;28;20048;-68
2023/05/22 05:04:38;;;;;;;14.23;10.07;;;16.30;81.70;;;;;;5068362;28;20215;-69
2023/05/22 05:07:05;;;;;;;14.63;10.45;;;16.30;81.80;;;;;;5064356;28;20040;-69
2023/05/22 05:09:32;;;;;;;12.88;10.07;;;16.30;81.80;;;;;;5043742;28;20045;-69
2023/05/22 05:12:02;;;;;;;11.90;10.07;;;16.30;81.90;;;;;;5041517;28;20041;-62
2023/05/22 05:14:29;;;;;;;12.43;10.38;;;16.30;81.90;;;;;;5038408;28;20076;-61
2023/05/22 05:16:57;;;;;;;12.73;10.30;;;16.30;81.70;;;;;;5065016;28;20048;-66
2023/05/22 05:19:25;;;;;;;13.57;10.00;;;16.30;81.70;;;;;;5059411;28;20076;-66
2023/05/22 05:21:52;;;;;;;13.77;10.05;;;16.30;81.70;;;;;;5070728;28;20377;-68
2023/05/22 05:24:20;;;;;;;12.77;10.30;;;16.40;81.70;;;;;;5063602;28;20033;-67
2023/05/22 05:26:49;;;;;;;14.05;10.13;;;16.40;81.70;;;;;;5043993;28;20493;-66
2023/05/22 05:29:18;;;;;;;17.87;10.23;;;16.40;81.60;;;;;;5043651;28;20504;-67
2023/05/22 05:31:53;;;;;;;13.45;10.13;;;16.50;81.50;;;;;;5056788;28;20049;-73
2023/05/22 05:34:39;;;;;;;13.90;10.73;;;16.50;81.50;;;;;;5067494;28;20542;-73
2023/05/22 05:37:16;;;;;;;13.25;10.18;;;16.50;81.50;;;;;;5053374;28;20614;-77
2023/05/22 05:39:43;;;;;;;13.10;9.85;;;16.60;81.40;;;;;;5040923;28;20124;-76
2023/05/22 05:42:10;;;;;;;13.85;10.95;;;16.60;81.20;;;;;;5051770;28;20592;-65
2023/05/22 05:44:39;;;;;;;12.10;9.88;;;16.60;81.40;;;;;;5042290;28;20044;-65
2023/05/22 05:47:07;;;;;;;12.75;10.23;;;16.70;81.20;;;;;;5057151;28;20037;-66
2023/05/22 05:49:34;;;;;;;11.73;9.43;;;16.70;81.20;;;;;;5041544;28;20048;-66
2023/05/22 05:52:01;;;;;;;16.20;10.82;;;16.70;81.30;;;;;;5042390;28;20044;-76
2023/05/22 05:54:28;;;;;;;12.82;10.43;;;16.80;81.20;;;;;;5043696;28;20052;-75
2023/05/22 05:57:00;;;;;;;12.98;10.55;;;16.80;81.10;;;;;;5043697;28;20090;-76
2023/05/22 05:59:30;;;;;;;12.90;10.77;;;16.90;80.80;;;;;;5040407;28;20504;-77
2023/05/22 06:02:17;;;;;;;13.05;10.75;;;16.90;81.00;;;;;;5030477;28;20464;-64
2023/05/22 06:04:47;;;;;;;15.23;11.40;;;16.90;80.60;;;;;;5039872;28;20064;-65
2023/05/22 06:07:18;;;;;;;12.70;10.55;;;17.00;80.20;;;;;;5048703;28;20048;-62
2023/05/22 06:09:47;;;;;;;14.02;10.57;;;17.00;80.50;;;;;;5049015;28;20052;-60
2023/05/22 06:12:22;;;;;;;13.65;10.77;;;17.00;80.90;;;;;;5040280;28;20484;-62
2023/05/22 06:14:49;;;;;;;13.60;10.13;;;17.10;80.90;;;;;;5044299;28;20048;-62
2023/05/22 06:17:17;;;;;;;13.10;10.57;;;17.20;80.90;;;;;;5063610;28;20052;-65
2023/05/22 06:19:45;;;;;;;14.93;9.77;;;17.20;80.60;;;;;;5045909;28;20063;-67
2023/05/22 06:22:14;;;;;;;14.18;11.38;;;17.20;80.60;;;;;;5043232;28;20044;-64
2023/05/22 06:24:43;;;;;;;14.25;10.48;;;17.20;80.70;;;;;;5045907;28;20067;-63
2023/05/22 06:27:15;;;;;;;12.88;10.05;;;17.30;80.90;;;;;;5063785;28;20048;-64
2023/05/22 06:29:42;;;;;;;11.50;9.65;;;17.30;81.10;;;;;;5038170;28;20051;-62
2023/05/22 06:32:09;;;;;;;13.52;10.10;;;17.40;80.20;;;;;;5042947;28;20089;-63
2023/05/22 06:34:40;;;;;;;12.77;10.03;;;17.40;80.80;;;;;;5035390;28;20051;-63
2023/05/22 06:37:07;;;;;;;15.35;11.32;;;17.50;80.40;;;;;;5060524;28;20063;-68
2023/05/22 06:39:39;;;;;;;12.80;10.80;;;17.60;80.40;;;;;;5041918;28;20136;-67
2023/05/22 06:42:07;;;;;;;13.70;10.30;;;17.60;80.40;;;;;;5067865;28;20052;-67
2023/05/22 06:44:54;;;;;;;12.48;10.30;;;17.70;80.40;;;;;;5053561;28;20144;-67
2023/05/22 06:47:23;;;;;;;14.33;10.63;;;17.90;80.10;;;;;;5035941;28;20045;-69
2023/05/22 06:49:51;;;;;;;14.35;10.95;;;17.90;80.40;;;;;;5039376;28;20055;-69
2023/05/22 06:52:18;;;;;;;13.32;10.07;;;18.00;80.20;;;;;;5041736;28;20040;-64
2023/05/22 06:54:45;;;;;;;16.38;10.20;;;18.10;80.20;;;;;;5045805;28;20496;-64
2023/05/22 06:57:15;;;;;;;18.08;10.68;;;18.20;79.90;;;;;;5049771;28;20107;-67
2023/05/22 06:59:42;;;;;;;15.48;10.70;;;18.20;79.50;;;;;;5039787;28;20056;-66
2023/05/22 07:02:25;;;;;;;12.35;10.68;;;18.30;79.30;;;;;;5037407;28;20045;-65
2023/05/22 07:05:21;;;;;;;13.98;10.18;;;18.50;78.90;;;;;;5062940;28;20055;-67
2023/05/22 07:07:55;;;;;;;13.77;10.23;;;18.60;78.50;;;;;;5047760;28;20122;-69
2023/05/22 07:10:23;;;;;;;12.35;10.57;;;18.60;78.50;;;;;;5033568;28;20048;-64
2023/05/22 07:12:50;;;;;;;13.45;10.85;;;18.70;78.50;;;;;;5037790;28;20127;-64
2023/05/22 07:15:17;;;;;;;13.10;10.25;;;18.80;78.10;;;;;;5039419;28;20059;-64
2023/05/22 07:17:49;;;;;;;14.10;9.82;;;19.00;77.70;;;;;;5055800;28;20049;-64
2023/05/22 07:20:17;;;;;;;12.30;10.00;;;19.10;77.30;;;;;;5044051;28;20093;-64
2023/05/22 07:22:55;;;;;;;13.63;10.13;;;19.30;76.70;;;;;;5048187;28;20141;-65
2023/05/22 07:25:22;;;;;;;12.15;9.90;;;19.60;76.30;;;;;;5060469;28;20049;-66
2023/05/22 07:27:49;;;;;;;13.40;9.80;;;19.70;75.60;;;;;;5039348;28;20060;-66
2023/05/22 07:30:18;;;;;;;12.73;9.90;;;19.90;75.10;;;;;;5047385;28;20044;-66
2023/05/22 07:32:48;;;;;;;11.20;9.70;;;20.10;74.30;;;;;;5043843;28;20038;-67
2023/05/22 07:35:15;;;;;;;14.63;9.95;;;20.30;74.10;;;;;;5045908;28;20045;-66
2023/05/22 07:37:42;;;;;;;13.00;9.82;;;20.50;73.60;;;;;;5068857;28;20055;-67
2023/05/22 07:40:11;;;;;;;15.00;10.55;;;20.70;73.40;;;;;;5049909;28;20072;-68
2023/05/22 07:42:38;;;;;;;12.65;9.88;;;20.90;72.30;;;;;;5063929;28;20436;-68
2023/05/22 07:45:07;;;;;;;14.10;8.77;;;21.10;71.40;;;;;;5043387;28;20438;-69
2023/05/22 07:47:34;;;;;;;13.05;9.20;;;21.30;69.90;;;;;;5068641;28;20055;-78
2023/05/22 07:50:03;;;;;;;10.82;8.77;;;21.60;69.30;;;;;;5045560;28;20511;-77
2023/05/22 07:52:31;;;;;;;11.10;9.27;;;21.70;69.30;;;;;;5038868;28;20058;-69
2023/05/22 07:54:59;;;;;;;11.05;8.20;;;22.00;68.50;;;;;;5052236;28;20122;-69
2023/05/22 07:57:29;;;;;;;11.27;8.00;;;22.10;67.60;;;;;;5048906;28;20127;-65
2023/05/22 07:59:58;;;;;;;11.57;8.25;;;22.30;64.60;;;;;;5047524;28;20140;-66
2023/05/22 08:02:25;;;;;;;9.98;8.20;;;22.40;64.50;;;;;;5060681;28;20041;-76
2023/05/22 08:04:52;;;;;;;9.80;7.55;;;22.60;64.40;;;;;;5069261;28;20076;-76
2023/05/22 08:07:19;;;;;;;11.77;7.18;;;22.80;62.90;;;;;;5064570;28;20506;-65
2023/05/22 08:09:46;;;;;;;9.70;7.78;;;22.90;63.90;;;;;;5064385;28;20051;-65
2023/05/22 08:12:13;;;;;;;13.52;7.70;;;23.00;63.40;;;;;;5064358;28;20068;-68
2023/05/22 08:14:41;;;;;;;9.60;7.50;;;23.10;62.60;;;;;;5065426;28;20036;-67
2023/05/22 08:17:08;;;;;;;11.45;7.22;;;23.30;62.10;;;;;;5058577;28;20415;-68
2023/05/22 08:19:35;;;;;;;8.13;6.82;;;23.40;62.40;;;;;;5071235;28;20059;-68
2023/05/22 08:22:02;;;;;;;8.63;6.90;;;23.50;62.40;;;;;;5053776;28;20060;-61
2023/05/22 08:24:29;;;;;;;9.88;7.28;;;23.70;61.30;;;;;;5062939;28;20049;-60
2023/05/22 08:26:57;;;;;;;8.88;7.30;;;23.80;61.20;;;;;;5069234;28;20044;-80
2023/05/22 08:29:24;;;;;;;9.50;7.07;;;23.90;60.90;;;;;;5067545;28;20048;-78
2023/05/22 08:31:52;;;;;;;8.85;7.10;;;24.10;60.80;;;;;;5061491;28;20585;-65
2023/05/22 08:34:19;;;;;;;9.48;6.55;;;24.20;58.40;;;;;;5067819;28;20036;-64
2023/05/22 08:36:47;;;;;;;9.38;6.90;;;24.30;59.10;;;;;;5069080;28;20048;-78
2023/05/22 08:39:14;;;;;;;8.63;7.00;;;24.50;58.50;;;;;;5068124;28;20488;-79
2023/05/22 08:41:42;;;;;;;8.38;6.55;;;24.50;59.10;;;;;;5069924;28;20044;-68
2023/05/22 08:44:12;;;;;;;8.57;6.28;;;24.60;59.50;;;;;;5063299;28;20041;-69
2023/05/22 08:46:40;;;;;;;8.85;6.65;;;24.70;58.00;;;;;;5060208;28;20048;-70
2023/05/22 08:49:09;;;;;;;8.90;6.80;;;24.80;58.40;;;;;;5068442;28;20096;-68
2023/05/22 08:51:38;;;;;;;7.82;5.85;;;24.90;57.90;;;;;;5057588;28;20052;-64
2023/05/22 08:54:06;;;;;;;8.38;6.57;;;25.10;56.90;;;;;;5057906;28;20036;-65
2023/05/22 08:56:34;;;;;;;8.85;7.07;;;25.20;56.10;;;;;;5068481;28;20045;-72
2023/05/22 08:59:01;;;;;;;7.55;6.03;;;25.30;56.60;;;;;;5061468;28;20048;-73
2023/05/22 09:01:28;;;;;;;9.50;6.53;;;25.40;55.70;;;;;;5064674;28;20044;-79
2023/05/22 09:03:59;;;;;;;10.35;7.28;;;25.50;55.70;;;;;;5062717;28;20048;-77
2023/05/22 09:06:28;;;;;;;9.65;7.45;;;25.60;55.50;;;;;;5045214;28;20518;-62
2023/05/22 09:08:56;;;;;;;10.43;7.13;;;25.60;54.70;;;;;;5061897;28;20512;-65
2023/05/22 09:11:23;;;;;;;11.68;8.10;;;25.70;55.20;;;;;;5068369;28;20052;-71
2023/05/22 09:13:51;;;;;;;12.88;9.18;;;25.80;54.80;;;;;;5056662;28;20048;-69
2023/05/22 09:16:18;;;;;;;11.85;8.93;;;25.90;54.40;;;;;;5044312;28;20049;-77
2023/05/22 09:18:45;;;;;;;10.05;8.90;;;26.00;54.30;;;;;;5067758;28;20041;-78
2023/05/22 09:21:13;;;;;;;10.90;8.77;;;26.10;53.90;;;;;;5066672;28;20205;-66
2023/05/22 09:23:42;;;;;;;12.68;9.48;;;26.20;53.90;;;;;;5068353;28;20102;-67
2023/05/22 09:26:08;;;;;;;11.35;8.77;;;26.10;54.20;;;;;;5061000;28;20496;-77
2023/05/22 09:28:36;;;;;;;9.95;8.52;;;26.20;53.50;;;;;;5059141;28;20045;-76
2023/05/22 09:31:05;;;;;;;9.70;8.32;;;26.30;53.20;;;;;;5063625;28;20128;-65
2023/05/22 09:33:32;;;;;;;11.95;8.50;;;26.40;53.20;;;;;;5067005;28;20063;-64
2023/05/22 09:36:00;;;;;;;9.13;7.20;;;26.60;52.30;;;;;;5063341;28;20063;-73
2023/05/22 09:38:28;;;;;;;12.05;8.75;;;26.70;52.70;;;;;;5063856;28;20040;-73
2023/05/22 09:40:57;;;;;;;9.40;7.93;;;26.80;52.80;;;;;;5067973;28;20377;-63
2023/05/22 09:43:25;;;;;;;12.35;8.75;;;26.80;52.60;;;;;;5038613;28;20055;-63
2023/05/22 09:45:56;;;;;;;10.40;8.20;;;26.90;53.10;;;;;;5064133;28;20044;-70
2023/05/22 09:48:24;;;;;;;10.63;8.50;;;27.00;52.10;;;;;;5067907;28;20048;-69
2023/05/22 09:50:54;;;;;;;10.10;8.02;;;27.10;52.40;;;;;;5054802;28;20488;-68
2023/05/22 09:53:26;;;;;;;12.43;8.85;;;27.10;52.50;;;;;;5062592;28;20048;-67
2023/05/22 09:55:56;;;;;;;11.18;9.23;;;27.10;52.80;;;;;;5056170;28;20118;-69
2023/05/22 09:58:26;;;;;;;12.75;10.95;;;27.20;52.40;;;;;;5063009;28;20048;-68
2023/05/22 10:00:55;;;;;;;14.48;11.68;;;27.20;52.50;;;;;;5061560;28;20128;-64
2023/05/22 10:03:25;;;;;;;14.10;11.57;;;27.30;52.40;;;;;;5064575;28;20056;-64
2023/05/22 10:05:54;;;;;;;13.95;10.48;;;27.50;52.10;;;;;;5066527;28;20094;-64
2023/05/22 10:08:25;;;;;;;12.20;10.20;;;27.60;51.10;;;;;;5061692;28;20084;-62
2023/05/22 10:10:52;;;;;;;11.18;9.45;;;27.60;49.80;;;;;;5061463;28;20041;-68
2023/05/22 10:13:21;;;;;;;12.35;9.32;;;27.70;50.10;;;;;;5058001;28;20048;-68
2023/05/22 10:15:49;;;;;;;11.82;9.10;;;27.80;50.70;;;;;;5062766;28;20040;-66
2023/05/22 10:18:17;;;;;;;10.15;9.02;;;27.90;51.10;;;;;;5062901;28;20399;-65
2023/05/22 10:20:45;;;;;;;10.95;8.80;;;27.90;51.50;;;;;;5063827;28;20291;-66
2023/05/22 10:23:13;;;;;;;10.20;8.23;;;27.90;51.30;;;;;;5064232;28;20126;-66
2023/05/22 10:25:41;;;;;;;11.60;8.52;;;28.00;51.50;;;;;;5054798;28;20411;-67
2023/05/22 10:28:09;;;;;;;9.52;7.72;;;28.00;50.10;;;;;;5063239;28;20408;-67
2023/05/22 10:30:46;;;;;;;9.80;7.97;;;28.10;49.70;;;;;;5058175;28;20049;-66
2023/05/22 10:33:38;;;;;;;10.30;7.55;;;28.20;49.00;;;;;;5059924;28;20064;-67
2023/05/22 10:36:10;;;;;;;9.32;7.68;;;28.20;49.30;;;;;;5058783;28;20044;-75
2023/05/22 10:38:57;;;;;;;11.00;8.00;;;28.20;49.30;;;;;;5050051;28;20052;-75
2023/05/22 10:41:25;;;;;;;8.95;7.47;;;28.20;49.70;;;;;;5065140;28;20056;-67
2023/05/22 10:43:55;;;;;;;9.23;7.20;;;28.10;49.60;;;;;;5061242;28;20049;-68
2023/05/22 10:46:24;;;;;;;9.73;6.85;;;28.20;48.60;;;;;;5060777;28;20049;-68
2023/05/22 10:48:55;;;;;;;9.05;7.25;;;28.30;48.20;;;;;;5066789;28;20067;-66
2023/05/22 10:51:22;;;;;;;10.40;7.40;;;28.40;47.90;;;;;;5053646;28;20496;-73
2023/05/22 10:53:53;;;;;;;11.77;7.13;;;28.40;49.50;;;;;;5061737;28;20056;-75
2023/05/22 10:56:20;;;;;;;7.57;6.40;;;28.50;49.30;;;;;;5067702;28;20053;-73
2023/05/22 10:58:56;;;;;;;7.53;6.43;;;28.40;50.20;;;;;;5062032;28;20052;-74
2023/05/22 11:01:26;;;;;;;9.15;7.20;;;28.40;50.30;;;;;;5061734;28;20060;-69
2023/05/22 11:04:00;;;;;;;12.02;7.10;;;28.40;50.10;;;;;;5044578;28;20125;-67
2023/05/22 11:06:35;;;;;;;10.10;7.32;;;28.40;49.90;;;;;;5059914;28;20048;-69
2023/05/22 11:09:17;;;;;;;8.48;6.75;;;28.50;49.20;;;;;;5055797;28;20048;-69
2023/05/22 11:11:45;;;;;;;7.82;6.38;;;28.60;48.10;;;;;;5069323;28;20056;-69
2023/05/22 11:14:12;;;;;;;8.68;6.50;;;28.60;47.70;;;;;;5060565;28;20139;-68
2023/05/22 11:16:40;;;;;;;7.93;6.20;;;28.60;48.20;;;;;;5060971;28;20056;-69
2023/05/22 11:19:08;;;;;;;7.90;6.38;;;28.60;48.70;;;;;;5059051;28;20060;-68
2023/05/22 11:21:36;;;;;;;8.95;6.53;;;28.50;48.10;;;;;;5062858;28;20051;-67
2023/05/22 11:24:07;;;;;;;8.73;6.20;;;28.50;48.40;;;;;;5060103;28;20397;-70
2023/05/22 11:26:34;;;;;;;8.68;6.45;;;28.60;48.40;;;;;;5065750;28;20070;-62
2023/05/22 11:29:01;;;;;;;9.10;6.60;;;28.50;48.90;;;;;;5062439;28;20055;-62
2023/05/22 11:31:29;;;;;;;7.65;6.50;;;28.60;47.50;;;;;;5057375;28;20102;-73
2023/05/22 11:33:58;;;;;;;8.88;7.32;;;28.60;47.10;;;;;;5062611;28;20131;-74
2023/05/22 11:36:27;;;;;;;9.18;7.38;;;28.60;47.60;;;;;;5064905;28;20055;-63
2023/05/22 11:38:57;;;;;;;;;;;28.60;47.60;;;;;;5059125;28;20041;-63
2023/05/22 11:41:24;;;;;;;7.72;6.65;;;28.70;47.70;;;;;;5059741;28;20315;-61
2023/05/22 11:43:50;;;;;;;7.88;6.30;;;28.70;48.20;;;;;;5062965;28;20049;-61
2023/05/22 11:46:18;;;;;;;8.63;6.43;;;28.60;48.80;;;;;;5060754;28;20044;-61
2023/05/22 11:48:45;;;;;;;9.20;6.50;;;28.50;48.30;;;;;;5063741;28;20056;-63
2023/05/22 11:51:13;;;;;;;7.75;6.57;;;28.60;48.10;;;;;;5050171;28;20503;-64
2023/05/22 11:53:41;;;;;;;7.03;6.07;;;28.60;46.20;;;;;;5056830;28;20469;-64
2023/05/22 11:56:08;;;;;;;8.40;6.55;;;28.70;47.20;;;;;;5060971;28;20044;-64
2023/05/22 11:58:35;;;;;;;8.73;6.60;;;28.80;46.00;;;;;;5056820;28;20534;-64
2023/05/22 12:01:03;;;;;;;7.63;6.10;;;28.80;45.40;;;;;;5065107;28;20047;-65
2023/05/22 12:03:31;;;;;;;7.40;6.10;;;28.80;46.30;;;;;;5060989;28;20119;-63
2023/05/22 12:05:59;;;;;;;7.35;6.13;;;28.90;45.80;;;;;;5063374;28;20399;-61
2023/05/22 12:08:30;;;;;;;7.75;6.30;;;29.00;46.80;;;;;;5050332;28;20041;-63
2023/05/22 12:10:57;;;;;;;6.72;5.65;;;28.90;47.30;;;;;;5056853;28;20093;-64
2023/05/22 12:13:26;;;;;;;7.35;5.82;;;28.80;47.70;;;;;;5057077;28;20056;-64
2023/05/22 12:15:53;;;;;;;;;;;28.80;45.90;;;;;;5055572;28;20051;-71
2023/05/22 12:18:20;;;;;;;7.43;6.07;;;28.90;47.20;;;;;;5059901;28;19921;-70
2023/05/22 12:20:47;;;;;;;7.47;6.15;;;28.90;46.00;;;;;;5049939;28;20127;-69
2023/05/22 12:23:21;;;;;;;7.50;5.43;;;29.00;45.50;;;;;;5058526;28;20053;-68
2023/05/22 12:25:57;;;;;;;8.05;5.78;;;29.10;45.90;;;;;;5063828;28;20051;-70
2023/05/22 12:28:25;;;;;;;8.07;6.10;;;29.10;45.20;;;;;;5066923;28;20084;-69
2023/05/22 12:30:54;;;;;;;7.05;5.70;;;29.00;46.00;;;;;;5062720;28;20040;-71
2023/05/22 12:33:25;;;;;;;;;;;28.70;45.00;;;;;;5069013;28;20060;-70
2023/05/22 12:35:52;;;;;;;7.95;6.35;;;28.50;45.80;;;;;;5063972;28;19929;-70
2023/05/22 12:38:21;;;;;;;8.82;7.70;;;28.50;44.60;;;;;;5063524;28;20044;-70
2023/05/22 12:40:51;;;;;;;10.05;8.35;;;28.50;46.30;;;;;;5066310;28;20052;-70
2023/05/22 12:43:19;;;;;;;10.65;8.68;;;28.50;48.20;;;;;;5067622;28;20494;-70
2023/05/22 12:45:46;;;;;;;11.43;9.30;;;28.40;48.80;;;;;;5065746;28;20119;-62
2023/05/22 12:48:12;;;;;;;12.35;9.57;;;28.30;48.80;;;;;;5057138;28;20122;-64